Time;durP1;ratioP1;P1;durP2;ratioP2;P2;SDS_P1;SDS_P2;PMS_P1;PMS_P2;Temp;Humidity;BMP_temperature;BMP_pressure;BME280_temperature;BME280_humidity;BME280_pressure;Samples;Min_cycle;Max_cycle;Signal;HPM_P1;HPM_P2
2023/04/13 00:00:43;;;;;;;6.72;2.72;;;5.80;99.90;;;;;;5034225;28;20132;-79
2023/04/13 00:05:53;;;;;;;5.93;3.08;;;5.90;99.90;;;;;;5034403;28;20054;-79
2023/04/13 00:08:21;;;;;;;7.50;3.13;;;6.00;99.90;;;;;;5034155;28;20141;-79
2023/04/13 00:10:49;;;;;;;4.30;1.88;;;6.10;99.90;;;;;;5017572;28;20049;-79
2023/04/13 00:13:17;;;;;;;6.75;3.13;;;6.10;99.90;;;;;;5017959;28;20448;-79
2023/04/13 00:15:43;;;;;;;6.90;2.90;;;6.10;99.90;;;;;;5034150;28;20053;-80
2023/04/13 00:18:10;;;;;;;6.47;3.05;;;6.10;99.90;;;;;;5034193;28;20129;-79
2023/04/13 00:20:36;;;;;;;6.47;3.20;;;6.20;99.90;;;;;;5033795;28;20038;-80
2023/04/13 00:23:02;;;;;;;6.88;3.65;;;6.10;99.90;;;;;;5017336;28;20131;-79
2023/04/13 00:25:28;;;;;;;7.03;3.35;;;6.10;99.90;;;;;;5034038;28;20126;-79
2023/04/13 00:27:54;;;;;;;8.10;2.78;;;6.20;99.90;;;;;;5033766;28;20478;-80
2023/04/13 00:30:20;;;;;;;5.97;3.35;;;6.20;99.90;;;;;;5033923;28;20486;-79
2023/04/13 00:32:47;;;;;;;7.95;3.50;;;6.30;99.90;;;;;;5033916;28;20045;-80
2023/04/13 00:35:18;;;;;;;7.30;3.70;;;6.30;99.90;;;;;;5050041;28;20099;-80
2023/04/13 00:37:46;;;;;;;7.80;3.70;;;6.30;99.90;;;;;;5017300;28;20473;-79
2023/04/13 00:40:14;;;;;;;7.13;3.80;;;6.30;99.90;;;;;;5001110;28;20046;-80
2023/04/13 00:42:43;;;;;;;7.78;3.47;;;6.30;99.90;;;;;;5033874;28;20550;-80
2023/04/13 00:45:10;;;;;;;7.20;3.45;;;6.30;99.90;;;;;;5050024;28;20397;-79
2023/04/13 00:47:36;;;;;;;7.38;3.63;;;6.30;99.90;;;;;;5033590;28;20147;-80
2023/04/13 00:50:04;;;;;;;7.35;3.35;;;6.30;99.90;;;;;;5016513;28;20104;-80
2023/04/13 00:52:33;;;;;;;6.45;3.40;;;6.40;99.90;;;;;;5033266;28;20409;-79
2023/04/13 00:55:02;;;;;;;6.88;3.22;;;6.40;99.90;;;;;;5033494;28;20045;-79
2023/04/13 00:57:28;;;;;;;5.65;2.17;;;6.40;99.90;;;;;;5033450;28;20063;-79
2023/04/13 00:59:54;;;;;;;7.45;2.88;;;6.50;99.90;;;;;;5033210;28;20041;-79
2023/04/13 01:02:25;;;;;;;6.97;2.80;;;6.50;99.90;;;;;;5033359;28;20465;-79
2023/04/13 01:04:54;;;;;;;6.10;2.47;;;6.60;99.90;;;;;;5033023;28;20133;-78
2023/04/13 01:07:36;;;;;;;6.50;2.80;;;6.60;99.90;;;;;;5033377;28;20619;-79
2023/04/13 01:10:20;;;;;;;5.53;2.58;;;6.60;99.90;;;;;;5032671;28;20061;-79
2023/04/13 01:13:05;;;;;;;6.53;2.78;;;6.60;99.90;;;;;;5033124;28;20489;-80
2023/04/13 01:15:36;;;;;;;5.57;2.60;;;6.50;99.90;;;;;;5033090;28;20041;-79
2023/04/13 01:18:07;;;;;;;4.93;2.58;;;6.50;99.90;;;;;;5016679;28;20085;-78
2023/04/13 01:20:39;;;;;;;4.72;2.22;;;6.50;99.90;;;;;;5032987;28;20049;-78
2023/04/13 01:23:13;;;;;;;4.72;2.10;;;6.50;99.90;;;;;;5016497;28;20057;-78
2023/04/13 01:25:50;;;;;;;5.72;2.55;;;6.50;99.90;;;;;;5049564;28;20143;-78
2023/04/13 01:28:18;;;;;;;5.70;2.10;;;6.50;99.90;;;;;;5032645;28;20406;-78
2023/04/13 01:30:49;;;;;;;5.55;2.05;;;6.50;99.90;;;;;;5032978;28;20449;-78
2023/04/13 01:33:15;;;;;;;5.50;2.17;;;6.50;99.90;;;;;;5032520;28;20134;-77
2023/04/13 01:35:42;;;;;;;6.85;2.33;;;6.40;99.90;;;;;;5032769;28;20513;-77
2023/04/13 01:38:08;;;;;;;5.95;2.50;;;6.40;99.90;;;;;;5032019;28;20049;-77
2023/04/13 01:40:39;;;;;;;6.00;2.20;;;6.40;99.90;;;;;;5032530;28;20045;-77
2023/04/13 01:43:06;;;;;;;5.78;2.10;;;6.40;99.90;;;;;;5032753;28;20060;-77
2023/04/13 01:45:53;;;;;;;6.97;2.33;;;6.40;99.90;;;;;;5032607;28;20053;-77
2023/04/13 01:48:32;;;;;;;6.05;2.50;;;6.40;99.90;;;;;;5049240;28;20057;-77
2023/04/13 01:51:02;;;;;;;4.00;1.42;;;6.40;99.90;;;;;;5032028;28;20037;-77
2023/04/13 01:53:39;;;;;;;5.72;2.30;;;6.50;99.90;;;;;;5032480;28;20421;-77
2023/04/13 01:56:05;;;;;;;7.22;2.45;;;6.40;99.90;;;;;;5032573;28;20103;-77
2023/04/13 01:58:33;;;;;;;5.43;2.42;;;6.40;99.90;;;;;;5032698;28;20072;-77
2023/04/13 02:00:59;;;;;;;7.47;2.00;;;6.40;99.90;;;;;;5032114;28;20052;-77
2023/04/13 02:03:25;;;;;;;5.88;2.40;;;6.40;99.90;;;;;;5032424;28;20049;-77
2023/04/13 02:05:51;;;;;;;5.07;2.15;;;6.40;99.90;;;;;;5032237;28;20046;-77
2023/04/13 02:08:17;;;;;;;7.10;2.58;;;6.40;99.90;;;;;;5031917;28;20061;-77
2023/04/13 02:10:44;;;;;;;8.18;2.50;;;6.30;99.90;;;;;;5032155;28;20401;-77
2023/04/13 02:13:10;;;;;;;5.47;2.17;;;6.30;99.90;;;;;;5032215;28;20049;-77
2023/04/13 02:15:40;;;;;;;5.35;2.17;;;6.30;99.90;;;;;;5032351;28;20065;-77
2023/04/13 02:18:06;;;;;;;6.72;2.38;;;6.30;99.90;;;;;;5015880;28;20045;-76
2023/04/13 02:20:43;;;;;;;6.85;2.58;;;6.30;99.90;;;;;;5033343;28;20124;-76
2023/04/13 02:23:16;;;;;;;6.13;2.35;;;6.40;99.90;;;;;;5016639;28;20084;-76
2023/04/13 02:25:42;;;;;;;7.45;2.10;;;6.40;99.90;;;;;;5032255;28;20420;-77
2023/04/13 02:28:10;;;;;;;2.70;1.00;;;6.40;99.90;;;;;;5016026;28;20041;-76
2023/04/13 02:30:36;;;;;;;6.45;2.10;;;6.40;99.90;;;;;;5031942;28;20128;-77
2023/04/13 02:33:02;;;;;;;5.07;2.05;;;6.40;99.90;;;;;;5015782;28;20057;-77
2023/04/13 02:35:28;;;;;;;5.15;1.63;;;6.30;99.90;;;;;;5015686;28;20049;-77
2023/04/13 02:37:54;;;;;;;6.10;2.58;;;6.40;99.90;;;;;;5015761;28;20055;-77
2023/04/13 02:40:20;;;;;;;7.15;2.85;;;6.30;99.90;;;;;;5031924;28;20378;-77
2023/04/13 02:42:47;;;;;;;6.60;2.85;;;6.30;99.90;;;;;;5015843;28;20095;-77
2023/04/13 02:45:16;;;;;;;7.25;2.78;;;6.20;99.90;;;;;;5032241;28;20493;-77
2023/04/13 02:47:43;;;;;;;5.95;2.38;;;6.30;99.90;;;;;;5031996;28;20061;-77
2023/04/13 02:50:10;;;;;;;5.43;2.53;;;6.30;99.90;;;;;;5015705;28;20495;-77
2023/04/13 02:52:36;;;;;;;5.43;2.55;;;6.30;99.90;;;;;;5035736;28;20175;-77
2023/04/13 02:55:03;;;;;;;6.45;2.33;;;6.30;99.90;;;;;;5035834;28;20505;-77
2023/04/13 02:57:30;;;;;;;6.90;2.55;;;6.30;99.90;;;;;;5035431;28;20452;-77
2023/04/13 02:59:56;;;;;;;7.00;2.60;;;6.30;99.90;;;;;;5035470;28;20077;-77
2023/04/13 03:02:25;;;;;;;5.95;2.50;;;6.20;99.90;;;;;;5018993;28;20441;-77
2023/04/13 03:04:51;;;;;;;5.25;2.10;;;6.20;99.90;;;;;;5035627;28;20057;-77
2023/04/13 03:07:17;;;;;;;5.47;2.03;;;6.20;99.90;;;;;;5018881;28;20057;-77
2023/04/13 03:09:43;;;;;;;5.43;1.90;;;6.20;99.90;;;;;;5034932;28;20405;-77
2023/04/13 03:12:09;;;;;;;7.20;2.30;;;6.30;99.90;;;;;;5035195;28;20050;-77
2023/04/13 03:14:36;;;;;;;4.85;1.77;;;6.30;99.90;;;;;;5019019;28;20053;-77
2023/04/13 03:17:03;;;;;;;4.78;2.00;;;6.30;99.90;;;;;;5035329;28;20049;-77
2023/04/13 03:19:29;;;;;;;5.47;1.75;;;6.30;99.90;;;;;;5035043;28;20073;-77
2023/04/13 03:21:55;;;;;;;4.93;1.70;;;6.30;99.90;;;;;;5035047;28;20053;-77
2023/04/13 03:24:22;;;;;;;6.22;1.90;;;6.20;99.90;;;;;;5034927;28;20049;-78
2023/04/13 03:26:48;;;;;;;4.72;2.10;;;6.30;99.90;;;;;;5035173;28;20059;-78
2023/04/13 03:29:14;;;;;;;5.60;2.00;;;6.30;99.90;;;;;;5035146;28;20045;-77
2023/04/13 03:31:40;;;;;;;5.85;2.15;;;6.30;99.90;;;;;;5035211;28;20447;-77
2023/04/13 03:34:06;;;;;;;6.70;2.42;;;6.40;99.90;;;;;;5018382;28;20053;-77
2023/04/13 03:36:31;;;;;;;6.18;2.17;;;6.30;99.90;;;;;;5035013;28;20048;-76
2023/04/13 03:38:57;;;;;;;6.05;2.28;;;6.30;99.90;;;;;;5035880;28;20049;-76
2023/04/13 03:41:23;;;;;;;4.72;2.25;;;6.40;99.90;;;;;;5018368;28;20061;-77
2023/04/13 03:43:49;;;;;;;5.35;2.08;;;6.30;99.90;;;;;;5034748;28;20049;-77
2023/04/13 03:46:15;;;;;;;5.82;2.58;;;6.30;99.90;;;;;;5034749;28;20052;-77
2023/04/13 03:48:41;;;;;;;5.32;2.15;;;6.40;99.90;;;;;;5034771;28;20457;-77
2023/04/13 03:51:07;;;;;;;5.22;2.20;;;6.40;99.90;;;;;;5018328;28;20135;-77
2023/04/13 03:53:37;;;;;;;7.57;2.28;;;6.40;99.90;;;;;;5034574;28;20080;-77
2023/04/13 03:56:03;;;;;;;5.70;2.53;;;6.40;99.90;;;;;;5018142;28;20061;-78
2023/04/13 03:58:30;;;;;;;6.32;2.72;;;6.40;99.90;;;;;;5018348;28;20085;-77
2023/04/13 04:00:56;;;;;;;6.68;2.70;;;6.40;99.90;;;;;;5017450;28;20042;-78
2023/04/13 04:03:24;;;;;;;7.15;2.53;;;6.40;99.90;;;;;;5034377;28;20049;-77
2023/04/13 04:05:50;;;;;;;6.43;2.80;;;6.40;99.90;;;;;;5034474;28;20045;-77
2023/04/13 04:08:16;;;;;;;6.15;2.58;;;6.40;99.90;;;;;;5017664;28;20053;-77
2023/04/13 04:10:43;;;;;;;6.40;2.63;;;6.40;99.90;;;;;;5034219;28;20107;-78
2023/04/13 04:13:08;;;;;;;5.65;2.63;;;6.50;99.90;;;;;;5017632;28;20057;-78
2023/04/13 04:15:34;;;;;;;7.22;3.20;;;6.50;99.90;;;;;;5001101;28;20049;-78
2023/04/13 04:18:00;;;;;;;7.13;3.10;;;6.40;99.90;;;;;;5017774;28;20080;-78
2023/04/13 04:20:26;;;;;;;7.63;3.40;;;6.50;99.90;;;;;;5017583;28;20037;-78
2023/04/13 04:22:52;;;;;;;7.28;3.25;;;6.40;99.90;;;;;;5017474;28;20055;-77
2023/04/13 04:25:21;;;;;;;7.78;3.67;;;6.40;99.90;;;;;;5017482;28;20095;-78
2023/04/13 04:27:56;;;;;;;7.50;3.60;;;6.40;99.90;;;;;;5033749;28;20136;-78
2023/04/13 04:30:23;;;;;;;6.93;3.50;;;6.40;99.90;;;;;;5033958;28;20493;-79
2023/04/13 04:32:53;;;;;;;7.47;3.50;;;6.40;99.90;;;;;;5034037;28;20389;-80
2023/04/13 04:35:20;;;;;;;8.00;4.00;;;6.40;99.90;;;;;;5033860;28;20500;-80
2023/04/13 04:37:48;;;;;;;9.77;4.10;;;6.40;99.90;;;;;;5017297;28;20041;-78
2023/04/13 04:40:15;;;;;;;7.93;3.80;;;6.40;99.90;;;;;;5017248;28;20045;-78
2023/04/13 04:42:41;;;;;;;9.32;3.88;;;6.50;99.90;;;;;;5017147;28;20054;-78
2023/04/13 04:45:12;;;;;;;6.90;3.90;;;6.40;99.90;;;;;;5033429;28;20397;-77
2023/04/13 04:47:42;;;;;;;7.60;3.73;;;6.40;99.90;;;;;;5017890;28;20056;-78
2023/04/13 04:50:11;;;;;;;6.78;3.47;;;6.50;99.90;;;;;;5017160;28;20442;-78
2023/04/13 04:52:38;;;;;;;6.97;4.07;;;6.50;99.90;;;;;;5000640;28;20057;-78
2023/04/13 04:55:05;;;;;;;9.07;3.90;;;6.50;99.90;;;;;;5033203;28;20401;-78
2023/04/13 04:57:35;;;;;;;7.75;3.97;;;6.50;99.90;;;;;;5033168;28;20049;-79
2023/04/13 05:00:14;;;;;;;8.90;4.43;;;6.50;99.90;;;;;;5049649;28;20045;-79
2023/04/13 05:02:40;;;;;;;7.22;4.53;;;6.50;99.90;;;;;;5017980;28;20049;-79
2023/04/13 05:05:06;;;;;;;6.95;4.40;;;6.40;99.90;;;;;;5016858;28;20093;-78
2023/04/13 05:07:32;;;;;;;9.98;4.47;;;6.50;99.90;;;;;;5033051;28;20053;-79
2023/04/13 05:09:57;;;;;;;9.18;4.53;;;6.50;99.90;;;;;;5049535;28;20081;-79
2023/04/13 05:12:23;;;;;;;8.35;4.50;;;6.50;99.90;;;;;;5049672;28;20405;-79
2023/04/13 05:14:49;;;;;;;7.80;4.55;;;6.40;99.90;;;;;;5049041;28;20052;-79
2023/04/13 05:17:18;;;;;;;8.43;4.28;;;6.50;99.90;;;;;;5016518;28;20050;-79
2023/04/13 05:19:45;;;;;;;6.88;3.80;;;6.50;99.90;;;;;;5032943;28;20416;-79
2023/04/13 05:22:12;;;;;;;8.85;3.90;;;6.40;99.90;;;;;;5049133;28;20456;-79
2023/04/13 05:24:38;;;;;;;7.40;4.00;;;6.40;99.90;;;;;;5049672;28;20053;-79
2023/04/13 05:27:05;;;;;;;7.78;4.00;;;6.40;99.90;;;;;;5016535;28;20110;-79
2023/04/13 05:29:34;;;;;;;8.60;3.60;;;6.40;99.90;;;;;;5049204;28;20049;-79
2023/04/13 05:32:00;;;;;;;8.10;3.75;;;6.30;99.90;;;;;;5032839;28;20478;-79
2023/04/13 05:34:26;;;;;;;8.75;3.78;;;6.40;99.90;;;;;;5016281;28;20110;-79
2023/04/13 05:36:52;;;;;;;7.32;4.00;;;6.40;99.90;;;;;;5016157;28;20057;-79
2023/04/13 05:39:19;;;;;;;7.68;3.78;;;6.40;99.90;;;;;;5032845;28;20056;-79
2023/04/13 05:41:45;;;;;;;8.93;4.10;;;6.40;99.90;;;;;;5016034;28;20057;-79
2023/04/13 05:44:11;;;;;;;8.98;4.15;;;6.40;99.90;;;;;;5049338;28;20050;-79
2023/04/13 05:46:36;;;;;;;9.25;4.43;;;6.50;99.90;;;;;;5032646;28;20103;-79
2023/04/13 05:49:02;;;;;;;8.85;4.43;;;6.50;99.90;;;;;;5049178;28;20064;-79
2023/04/13 05:51:32;;;;;;;9.40;4.93;;;6.60;99.90;;;;;;5049157;28;20397;-79
2023/04/13 05:53:58;;;;;;;9.05;4.60;;;6.70;99.90;;;;;;5032553;28;20041;-79
2023/04/13 05:56:24;;;;;;;8.45;5.13;;;6.80;99.90;;;;;;5032604;28;20103;-79
2023/04/13 05:58:51;;;;;;;9.98;5.18;;;6.80;99.90;;;;;;5032502;28;20057;-79
2023/04/13 06:01:18;;;;;;;9.98;5.30;;;7.00;99.90;;;;;;5032205;28;20045;-79
2023/04/13 06:03:45;;;;;;;8.98;5.63;;;7.10;99.90;;;;;;5032310;28;20057;-79
2023/04/13 06:06:11;;;;;;;10.63;5.70;;;7.20;99.90;;;;;;5016237;28;20053;-79
2023/04/13 06:08:38;;;;;;;10.48;5.47;;;7.40;99.90;;;;;;5015456;28;20096;-79
2023/04/13 06:11:05;;;;;;;8.77;5.55;;;7.50;99.90;;;;;;5032430;28;20435;-79
2023/04/13 06:13:31;;;;;;;9.90;5.68;;;7.70;99.90;;;;;;5015491;28;20050;-80
2023/04/13 06:15:57;;;;;;;10.25;5.85;;;8.00;99.90;;;;;;5015899;28;20080;-80
2023/04/13 06:18:27;;;;;;;10.88;5.47;;;8.20;99.90;;;;;;5032360;28;20100;-80
2023/04/13 06:20:53;;;;;;;8.80;5.00;;;8.20;99.90;;;;;;5031900;28;20045;-80
2023/04/13 06:23:19;;;;;;;9.30;5.30;;;8.20;99.90;;;;;;5032333;28;20489;-80
2023/04/13 06:25:45;;;;;;;9.75;5.40;;;8.20;99.90;;;;;;5018399;28;20049;-80
2023/04/13 06:28:14;;;;;;;8.32;4.90;;;8.20;99.90;;;;;;5019282;28;20056;-80
2023/04/13 06:30:40;;;;;;;8.90;5.00;;;8.10;99.90;;;;;;5035951;28;20049;-80
2023/04/13 06:33:07;;;;;;;9.70;4.85;;;8.20;99.90;;;;;;5035789;28;20053;-80
2023/04/13 06:35:32;;;;;;;9.05;4.25;;;8.40;99.90;;;;;;5003309;28;20132;-80
2023/04/13 06:38:00;;;;;;;10.45;4.72;;;8.40;99.90;;;;;;5036122;28;20141;-80
2023/04/13 06:40:26;;;;;;;10.45;4.65;;;8.50;99.90;;;;;;5035369;28;20046;-80
2023/04/13 06:42:53;;;;;;;9.05;4.47;;;8.50;99.90;;;;;;5036029;28;20513;-80
2023/04/13 06:45:20;;;;;;;8.98;4.93;;;8.40;99.90;;;;;;5035454;28;20129;-80
2023/04/13 06:47:46;;;;;;;9.63;4.97;;;8.40;99.90;;;;;;5035919;28;20065;-81
2023/04/13 06:50:14;;;;;;;8.80;5.18;;;8.60;99.90;;;;;;5019235;28;20161;-80
2023/04/13 06:52:46;;;;;;;9.13;4.50;;;8.80;99.90;;;;;;5035760;28;20053;-80
2023/04/13 06:55:16;;;;;;;8.68;5.07;;;8.80;99.90;;;;;;5035759;28;20049;-80
2023/04/13 06:57:42;;;;;;;10.23;4.80;;;8.70;99.90;;;;;;5019230;28;20053;-80
2023/04/13 07:00:09;;;;;;;9.55;4.40;;;8.80;99.90;;;;;;5035705;28;20081;-80
2023/04/13 07:02:35;;;;;;;9.02;4.28;;;9.00;99.90;;;;;;5035545;28;20056;-79
2023/04/13 07:05:01;;;;;;;9.10;4.30;;;9.10;99.90;;;;;;5035155;28;20050;-80
2023/04/13 07:07:27;;;;;;;8.82;4.80;;;9.10;99.90;;;;;;5019012;28;20474;-80
2023/04/13 07:09:53;;;;;;;9.50;4.80;;;9.20;99.90;;;;;;5035016;28;20053;-80
2023/04/13 07:12:19;;;;;;;8.60;4.30;;;9.30;99.90;;;;;;5035453;28;20148;-80
2023/04/13 07:14:45;;;;;;;9.48;4.10;;;9.40;99.90;;;;;;5002555;28;20372;-80
2023/04/13 07:17:11;;;;;;;8.13;4.30;;;9.40;99.90;;;;;;5018726;28;20050;-80
2023/04/13 07:19:37;;;;;;;8.73;4.25;;;9.30;99.90;;;;;;5018637;28;20045;-81
2023/04/13 07:22:03;;;;;;;10.27;4.00;;;9.30;99.90;;;;;;5035193;28;20084;-80
2023/04/13 07:24:29;;;;;;;9.48;4.20;;;9.30;99.90;;;;;;5034634;28;20060;-80
2023/04/13 07:26:56;;;;;;;9.00;4.20;;;9.20;99.90;;;;;;5035135;28;20044;-80
2023/04/13 07:29:22;;;;;;;8.35;3.58;;;9.10;99.90;;;;;;5018734;28;20045;-80
2023/04/13 07:31:49;;;;;;;9.27;4.10;;;9.00;99.90;;;;;;5035162;28;20057;-80
2023/04/13 07:34:15;;;;;;;9.05;3.50;;;8.90;99.90;;;;;;5018572;28;20053;-80
2023/04/13 07:36:42;;;;;;;10.18;3.58;;;8.90;99.90;;;;;;5034188;28;20481;-80
2023/04/13 07:39:10;;;;;;;9.43;3.60;;;8.90;99.90;;;;;;5034984;28;20042;-80
2023/04/13 07:41:37;;;;;;;10.55;3.72;;;8.90;99.90;;;;;;5018297;28;20045;-80
2023/04/13 07:44:04;;;;;;;10.30;3.75;;;9.10;99.90;;;;;;5034868;28;20060;-80
2023/04/13 07:46:31;;;;;;;9.18;3.40;;;9.30;99.90;;;;;;5034914;28;20071;-80
2023/04/13 07:48:57;;;;;;;9.10;3.60;;;9.30;99.90;;;;;;5018055;28;20406;-80
2023/04/13 07:51:23;;;;;;;9.00;3.50;;;9.40;99.90;;;;;;5017505;28;20057;-80
2023/04/13 07:53:51;;;;;;;10.02;3.60;;;9.40;99.90;;;;;;5018170;28;20084;-80
2023/04/13 07:56:17;;;;;;;9.02;3.10;;;9.40;99.90;;;;;;5018057;28;20085;-80
2023/04/13 07:58:44;;;;;;;9.63;2.58;;;9.60;99.90;;;;;;5017535;28;20103;-81
2023/04/13 08:01:10;;;;;;;6.72;2.55;;;9.60;99.90;;;;;;5017836;28;20046;-81
2023/04/13 08:03:36;;;;;;;6.25;2.33;;;9.60;99.90;;;;;;5034383;28;20095;-80
2023/04/13 08:06:06;;;;;;;7.95;2.35;;;9.50;99.90;;;;;;5034099;28;20060;-80
2023/04/13 08:08:32;;;;;;;6.68;2.30;;;9.40;99.90;;;;;;5034200;28;20424;-80
2023/04/13 08:10:58;;;;;;;6.47;2.10;;;9.30;99.90;;;;;;5017394;28;20521;-80
2023/04/13 08:13:30;;;;;;;7.05;2.10;;;9.30;99.90;;;;;;5034419;28;20092;-81
2023/04/13 08:15:56;;;;;;;6.50;2.10;;;9.30;99.90;;;;;;5034280;28;20103;-80
2023/04/13 08:18:22;;;;;;;6.68;1.98;;;9.40;99.90;;;;;;5033900;28;20508;-81
2023/04/13 08:20:49;;;;;;;6.10;2.30;;;9.40;99.90;;;;;;5017266;28;20041;-81
2023/04/13 08:23:15;;;;;;;5.57;2.30;;;9.60;99.90;;;;;;5050714;28;20132;-81
2023/04/13 08:25:41;;;;;;;4.88;1.80;;;9.90;99.90;;;;;;5033894;28;20149;-81
2023/04/13 08:28:08;;;;;;;5.85;1.80;;;10.00;99.90;;;;;;5017276;28;20367;-81
2023/04/13 08:30:34;;;;;;;5.00;2.00;;;10.10;99.90;;;;;;5034015;28;20122;-80
2023/04/13 08:33:01;;;;;;;5.25;2.00;;;10.20;99.90;;;;;;5017463;28;20049;-79
2023/04/13 08:35:26;;;;;;;6.43;2.05;;;10.20;99.90;;;;;;5034984;28;20128;-80
2023/04/13 08:37:55;;;;;;;5.97;2.00;;;10.30;99.90;;;;;;5017277;28;20142;-80
2023/04/13 08:40:21;;;;;;;6.05;2.58;;;10.40;99.90;;;;;;5033565;28;20053;-81
2023/04/13 08:42:47;;;;;;;5.15;2.20;;;10.50;99.90;;;;;;5033260;28;20103;-81
2023/04/13 08:45:14;;;;;;;6.22;2.40;;;10.80;99.90;;;;;;5033521;28;20162;-81
2023/04/13 08:47:41;;;;;;;5.45;2.20;;;10.90;99.90;;;;;;5033287;28;20056;-80
2023/04/13 08:50:07;;;;;;;5.30;1.70;;;11.00;99.90;;;;;;5033604;28;20141;-80
2023/04/13 08:52:35;;;;;;;8.68;2.42;;;10.90;99.90;;;;;;5033534;28;20053;-81
2023/04/13 08:55:03;;;;;;;6.95;2.38;;;10.90;99.90;;;;;;5033476;28;20111;-80
2023/04/13 08:57:30;;;;;;;6.75;2.80;;;10.60;99.90;;;;;;5033372;28;20402;-80
2023/04/13 08:59:57;;;;;;;6.03;2.53;;;10.40;99.90;;;;;;5033344;28;20049;-80
2023/04/13 09:02:27;;;;;;;7.10;2.97;;;10.30;99.90;;;;;;5033420;28;20057;-81
2023/04/13 09:04:58;;;;;;;7.43;2.70;;;10.10;99.90;;;;;;5033426;28;20056;-80
2023/04/13 09:07:29;;;;;;;6.30;2.80;;;9.90;99.90;;;;;;5033083;28;20555;-81
2023/04/13 09:09:57;;;;;;;7.65;2.53;;;9.70;99.90;;;;;;5016326;28;20057;-79
2023/04/13 09:12:29;;;;;;;6.85;2.67;;;9.60;99.90;;;;;;5033025;28;20049;-80
2023/04/13 09:14:56;;;;;;;5.78;2.78;;;9.50;99.90;;;;;;5033223;28;20076;-80
2023/04/13 09:17:26;;;;;;;6.68;3.17;;;9.50;99.90;;;;;;5016726;28;20053;-80
2023/04/13 09:19:52;;;;;;;8.40;3.50;;;9.30;99.90;;;;;;5033042;28;20048;-81
2023/04/13 09:22:18;;;;;;;6.22;2.90;;;9.40;99.90;;;;;;5032796;28;20413;-80
2023/04/13 09:24:44;;;;;;;8.02;2.80;;;9.40;99.90;;;;;;5032340;28;20053;-79
2023/04/13 09:27:22;;;;;;;6.68;2.30;;;9.30;99.90;;;;;;5000175;28;20056;-78
2023/04/13 09:29:55;;;;;;;6.40;1.67;;;9.10;99.90;;;;;;5016579;28;20056;-77
2023/04/13 09:32:26;;;;;;;1.42;0.55;;;9.00;99.90;;;;;;5032589;28;20052;-77
2023/04/13 09:35:07;;;;;;;3.50;1.00;;;8.80;99.90;;;;;;5016459;28;20081;-77
2023/04/13 09:37:34;;;;;;;4.30;1.10;;;8.60;99.90;;;;;;5016199;28;20053;-77
2023/04/13 09:42:50;;;;;;;2.75;1.00;;;8.40;99.90;;;;;;5912373;22;20061;-76
2023/04/13 09:45:16;;;;;;;4.15;1.13;;;8.50;99.90;;;;;;4949599;29;20506;-77
2023/04/13 09:47:42;;;;;;;3.72;1.15;;;8.50;99.90;;;;;;4935738;29;20057;-77
2023/04/13 09:50:27;;;;;;;4.18;1.10;;;8.50;99.90;;;;;;4935219;29;20419;-77
2023/04/13 09:53:04;;;;;;;4.80;1.05;;;8.50;99.90;;;;;;4935438;29;20451;-77
2023/04/13 09:55:35;;;;;;;3.65;1.00;;;8.40;99.90;;;;;;4935452;29;20066;-77
2023/04/13 09:58:12;;;;;;;4.32;0.95;;;8.40;99.90;;;;;;4935431;29;20055;-76
2023/04/13 10:00:40;;;;;;;4.60;1.10;;;8.40;99.90;;;;;;4934367;29;20058;-77
2023/04/13 10:03:11;;;;;;;3.33;1.08;;;8.30;99.90;;;;;;4912192;29;20138;-77
2023/04/13 10:05:37;;;;;;;4.22;1.05;;;8.30;99.90;;;;;;4928459;29;20143;-76
2023/04/13 10:08:05;;;;;;;2.28;0.80;;;8.30;99.90;;;;;;4935287;29;20062;-77
2023/04/13 10:10:40;;;;;;;1.90;0.80;;;8.20;99.90;;;;;;4935064;29;20060;-77
2023/04/13 10:13:21;;;;;;;2.50;0.90;;;8.30;99.90;;;;;;4935003;29;20047;-77
2023/04/13 10:15:52;;;;;;;2.40;0.80;;;8.50;99.90;;;;;;4935268;29;20447;-78
2023/04/13 10:18:31;;;;;;;4.05;1.15;;;8.60;99.90;;;;;;4935292;29;20094;-79
2023/04/13 10:20:58;;;;;;;4.57;1.38;;;9.10;99.90;;;;;;4934978;29;20039;-78
2023/04/13 10:23:26;;;;;;;5.30;1.40;;;9.60;99.90;;;;;;4919315;29;20051;-79
2023/04/13 10:25:53;;;;;;;5.07;1.50;;;10.00;99.90;;;;;;4935084;29;20130;-79
2023/04/13 10:28:20;;;;;;;6.10;1.40;;;10.40;99.90;;;;;;4919403;29;20058;-79
2023/04/13 10:30:50;;;;;;;6.63;1.50;;;10.80;99.90;;;;;;4935047;29;20060;-79
2023/04/13 10:33:16;;;;;;;4.63;1.38;;;11.00;99.90;;;;;;4934602;29;20048;-79
2023/04/13 10:35:53;;;;;;;4.32;1.40;;;10.90;99.90;;;;;;4919081;29;20138;-79
2023/04/13 10:38:18;;;;;;;5.13;1.40;;;10.90;99.90;;;;;;4934812;29;20082;-79
2023/04/13 10:40:45;;;;;;;5.50;1.42;;;10.80;99.90;;;;;;4934815;29;20476;-79
2023/04/13 10:43:11;;;;;;;6.70;1.40;;;10.70;99.90;;;;;;4919063;29;20118;-79
2023/04/13 10:45:37;;;;;;;6.43;1.55;;;10.60;99.90;;;;;;4918916;29;20059;-78
2023/04/13 10:48:04;;;;;;;8.00;1.77;;;10.50;99.90;;;;;;4934961;29;20107;-78
2023/04/13 10:50:30;;;;;;;6.05;1.85;;;10.40;99.90;;;;;;4919186;29;20116;-78
2023/04/13 10:53:23;;;;;;;7.30;1.67;;;10.20;99.90;;;;;;4919089;29;20086;-78
2023/04/13 10:55:49;;;;;;;7.05;1.65;;;10.10;99.90;;;;;;4919114;29;20067;-79
2023/04/13 10:58:16;;;;;;;7.22;1.80;;;9.90;99.90;;;;;;4935808;29;20048;-79
2023/04/13 11:00:45;;;;;;;7.78;1.70;;;9.80;99.90;;;;;;4918972;29;20048;-79
2023/04/13 11:03:13;;;;;;;8.32;1.67;;;9.80;99.90;;;;;;4934852;29;20062;-79
2023/04/13 11:05:39;;;;;;;9.77;2.05;;;9.90;99.90;;;;;;4934623;29;20055;-79
2023/04/13 11:08:08;;;;;;;8.55;1.98;;;10.10;99.90;;;;;;4918855;29;20048;-79
2023/04/13 11:10:34;;;;;;;8.18;1.85;;;10.20;99.90;;;;;;4919070;29;20159;-79
2023/04/13 11:13:00;;;;;;;11.40;2.13;;;10.30;99.90;;;;;;4937392;29;20086;-79
2023/04/13 11:15:28;;;;;;;12.65;2.10;;;10.30;99.90;;;;;;4938219;29;20063;-80
2023/04/13 11:17:56;;;;;;;8.65;2.13;;;10.40;99.90;;;;;;4938152;29;20056;-79
2023/04/13 11:20:33;;;;;;;10.60;2.17;;;10.40;99.90;;;;;;4937832;29;20047;-79
2023/04/13 11:23:05;;;;;;;9.48;2.08;;;10.40;99.90;;;;;;4937447;29;20044;-79
2023/04/13 11:25:32;;;;;;;10.23;2.27;;;10.40;99.90;;;;;;4922638;29;20503;-79
2023/04/13 11:27:59;;;;;;;8.50;2.05;;;10.40;99.90;;;;;;4921953;29;20063;-79
2023/04/13 11:30:26;;;;;;;12.68;2.50;;;10.50;99.90;;;;;;4937765;29;20054;-79
2023/04/13 11:32:52;;;;;;;11.50;2.08;;;10.50;99.90;;;;;;4922097;29;20043;-79
2023/04/13 11:35:20;;;;;;;9.27;2.20;;;10.60;99.90;;;;;;4937730;29;20055;-79
2023/04/13 11:37:48;;;;;;;11.93;2.30;;;10.70;99.90;;;;;;4922078;29;20051;-80
2023/04/13 11:40:24;;;;;;;9.45;2.15;;;10.70;99.90;;;;;;4921688;29;20087;-79
2023/04/13 11:42:52;;;;;;;8.75;2.10;;;10.70;99.90;;;;;;4937435;29;20059;-79
2023/04/13 11:45:19;;;;;;;10.68;2.35;;;10.80;99.90;;;;;;4921555;29;20059;-79
2023/04/13 11:47:46;;;;;;;10.77;2.10;;;10.90;99.90;;;;;;4906262;29;20063;-80
2023/04/13 11:50:13;;;;;;;11.68;2.42;;;10.90;99.90;;;;;;4921788;29;20051;-79
2023/04/13 11:52:40;;;;;;;9.57;2.17;;;10.90;99.90;;;;;;4937513;29;20055;-79
2023/04/13 11:55:07;;;;;;;11.35;2.28;;;10.90;99.90;;;;;;4936920;29;20123;-79
2023/04/13 11:57:33;;;;;;;11.55;2.40;;;11.00;99.90;;;;;;4906056;29;20051;-79
2023/04/13 12:00:00;;;;;;;11.90;2.58;;;11.10;99.90;;;;;;4921428;29;20050;-79
2023/04/13 12:02:26;;;;;;;11.13;2.50;;;11.20;99.90;;;;;;4937296;29;20051;-79
2023/04/13 12:04:52;;;;;;;12.50;2.20;;;11.20;99.90;;;;;;4937210;29;20051;-79
2023/04/13 12:07:19;;;;;;;11.75;2.25;;;11.10;99.90;;;;;;4921106;29;20063;-79
2023/04/13 12:09:46;;;;;;;12.50;2.45;;;11.00;99.90;;;;;;4937286;29;20051;-79
2023/04/13 12:12:25;;;;;;;11.43;2.22;;;10.90;99.90;;;;;;4937164;29;20503;-80
2023/04/13 12:14:56;;;;;;;8.98;2.70;;;10.80;99.90;;;;;;4936770;29;20415;-79
2023/04/13 12:17:32;;;;;;;9.93;2.25;;;10.80;99.90;;;;;;4937145;29;20063;-79
2023/04/13 12:20:02;;;;;;;10.18;2.20;;;10.70;99.90;;;;;;4936925;29;20048;-79
2023/04/13 12:22:40;;;;;;;11.55;2.05;;;10.80;99.90;;;;;;4921399;29;20078;-80
2023/04/13 12:25:20;;;;;;;9.73;1.92;;;10.80;99.90;;;;;;4920483;29;20130;-80
2023/04/13 12:27:49;;;;;;;10.00;1.98;;;10.90;99.90;;;;;;4920798;29;20087;-80
2023/04/13 12:30:16;;;;;;;9.32;2.20;;;11.00;99.90;;;;;;4936969;29;20056;-79
2023/04/13 12:32:47;;;;;;;7.72;1.80;;;11.20;99.90;;;;;;4921043;29;20054;-79
2023/04/13 12:35:14;;;;;;;9.75;2.15;;;11.40;99.90;;;;;;4936370;29;20488;-79
2023/04/13 12:37:41;;;;;;;8.57;2.05;;;11.50;99.90;;;;;;4920662;29;20055;-79
2023/04/13 12:40:11;;;;;;;11.25;2.55;;;11.40;99.90;;;;;;4936520;29;20467;-79
2023/04/13 12:42:47;;;;;;;12.80;2.10;;;11.40;99.90;;;;;;4936328;29;20448;-79
2023/04/13 12:45:16;;;;;;;13.02;2.45;;;11.40;99.90;;;;;;4935960;29;20159;-79
2023/04/13 12:47:42;;;;;;;13.80;2.50;;;11.40;99.90;;;;;;4936495;29;20107;-79
2023/04/13 12:50:10;;;;;;;10.90;2.30;;;11.30;99.90;;;;;;4920732;29;20055;-80
2023/04/13 12:52:37;;;;;;;9.73;2.28;;;11.30;99.90;;;;;;4936124;29;20055;-79
2023/04/13 12:55:03;;;;;;;8.75;2.17;;;11.40;99.90;;;;;;4936427;29;20563;-79
2023/04/13 12:57:29;;;;;;;12.18;2.80;;;11.60;99.90;;;;;;4920242;29;20052;-79
2023/04/13 12:59:56;;;;;;;11.43;2.20;;;11.80;99.90;;;;;;4935670;29;20056;-80
2023/04/13 13:02:22;;;;;;;14.05;2.42;;;11.90;99.90;;;;;;4936384;29;20047;-80